罗盘
风向 的 风向 的 风向 到 风向 210° Oostwold Airport 6/24
风: 7 kt, 3 beaufort

6 kt

4 kt
改变
0 1.000 2.000 3.000 4.000 5.000
SCT 1.400 ft
SCT 4.800 ft
METAR EDWE 281150Z 21007KT 160V250 9999 SCT014 SCT048 13/08 Q0996

METAR Oostwold Airport - EHOW

Oostwold Airport是Oldambt,荷兰中的小机场。 该机场有一条跑道: 6/24. 该领域的国际民航组织标志是EHOW.

这份报告是针对2022年9月28日 13:50, 当地时间在Emden Airport进行的。

机场观察

风向为210°,速度为7 kt。 风向在160°和250°之间变化。

可见度为10 km 或者更多。

有疏云,零星散落的云朵在1.400 ft的高度 和 疏云,零星散落的云朵在4.800 ft的高度。 没有观察到天花板。

温度和风寒是13 °C。 露点为8 °C,相对湿度为72%。 海平面上的气压为996 hPa (QNH)。

白天

今天,太阳从07:28升起,在19:16降落。 这适用于Oostwold Airport,世界夏令时可能有所不同。 当地时间与世界标准时间之间的时差为+2 小时。 夏令时目前正在进行中。

公司介绍

在这个机场,你可以找到跳伞中心。 这个机场上的公司有Vliegbedrijf Tom van der Meulen 和 Skydive Blauwestad。

体会

到Vliegles.nl去找飞行课程,跳伞和其他飞行体验。 浏览页面,了解Oostwold Airport附近所有可用的活动。 你也可以使用搜索功能来寻找你所在地附近的特定飞行课程、跳伞或其他飞行体验。

跑道

Id 标题 侧风 逆风 侧风 %
6/24 064°-244° 4 kt 6 kt 56 %

逆风成分最大的方向会被突出显示,并用于横风计算。 这并不一定意味着这个方向在使用。

乌云

1.400 ft SCT 疏云,零星散落的云朵
4.800 ft SCT 疏云,零星散落的云朵

温度 & 天气

温度 13 °C
露点 8 °C
相对湿度 72%
Kp-index 0 (0-9)

白天

日出
07:27
中午
13:21
日落
19:16 (5h 03m)

小工具

你想在你的网站上有一个关于Oostwold Airport的当前航空天气(METAR)的小部件吗?

</> 显示HTML代码

我们和第三方通过cookies跟踪您在我们网站上的上网行为。如果您继续,我们认为您同意我们的cookie政策。 了解更多